Time;durP1;ratioP1;P1;durP2;ratioP2;P2;SDS_P1;SDS_P2;PMS_P1;PMS_P2;Temp;Humidity;BMP_temperature;BMP_pressure;BME280_temperature;BME280_humidity;BME280_pressure;Samples;Min_cycle;Max_cycle;Signal;HPM_P1;HPM_P2
2021/08/14 00:01:58;;;;;;;4.87;3.17;;;;;;;29.82;40.40;101614.23;128463;1084;64282;-86
2021/08/14 00:04:30;;;;;;;5.27;3.63;;;;;;;29.82;40.12;101617.84;128467;1084;64310;-86
2021/08/14 00:06:57;;;;;;;4.83;3.40;;;;;;;29.81;40.38;101616.11;128472;1084;64282;-86
2021/08/14 00:09:25;;;;;;;5.17;3.30;;;;;;;29.81;40.33;101616.11;128921;1083;64123;-85
2021/08/14 00:11:55;;;;;;;4.43;3.07;;;;;;;29.81;40.09;101621.55;128868;1082;64603;-85
2021/08/14 00:14:24;;;;;;;5.97;3.17;;;;;;;29.80;40.41;101617.11;128911;1084;64287;-85
2021/08/14 00:16:50;;;;;;;5.40;3.20;;;;;;;29.81;40.16;101634.31;128531;1083;64131;-85
2021/08/14 00:19:19;;;;;;;5.63;3.57;;;;;;;29.81;40.23;101632.44;128441;1083;64224;-86
2021/08/14 00:21:46;;;;;;;5.60;3.30;;;;;;;29.81;40.33;101634.31;128449;1084;64099;-85
2021/08/14 00:24:12;;;;;;;5.60;3.20;;;;;;;29.81;40.46;101637.03;128493;1083;64234;-85
2021/08/14 00:26:42;;;;;;;4.83;3.30;;;;;;;29.81;40.65;101639.76;128507;1083;64162;-85
2021/08/14 00:29:08;;;;;;;4.73;3.40;;;;;;;29.81;40.19;101628.88;128872;1082;64147;-86
2021/08/14 00:31:34;;;;;;;4.80;3.10;;;;;;;29.80;40.39;101641.61;128482;1083;64160;-86
2021/08/14 00:34:01;;;;;;;4.53;3.20;;;;;;;29.80;40.24;101636.16;128498;1084;64294;-86
2021/08/14 00:36:27;;;;;;;5.17;3.30;;;;;;;29.80;40.63;101629.88;128557;1083;64174;-86
2021/08/14 00:38:54;;;;;;;4.83;3.40;;;;;;;29.80;40.50;101629.88;128514;1084;64121;-86
2021/08/14 00:41:21;;;;;;;4.73;3.30;;;;;;;29.80;40.21;101632.59;128484;1084;64249;-85
2021/08/14 00:43:48;;;;;;;6.13;3.37;;;;;;;29.80;40.41;101632.59;128494;1084;64119;-87
2021/08/14 00:46:23;;;;;;;5.60;3.50;;;;;;;29.78;40.60;101632.75;128516;1084;64131;-85
2021/08/14 00:48:50;;;;;;;4.70;3.07;;;;;;;29.79;40.40;101628.99;128550;1084;64125;-87
2021/08/14 00:51:16;;;;;;;4.33;3.20;;;;;;;29.78;40.70;101635.47;128503;1084;64172;-86
2021/08/14 00:53:42;;;;;;;4.63;3.20;;;;;;;29.78;40.59;101627.30;128910;1084;64108;-87
2021/08/14 00:56:08;;;;;;;4.77;3.30;;;;;;;29.80;40.60;101629.88;128510;1084;64093;-86
2021/08/14 00:58:35;;;;;;;4.60;3.40;;;;;;;29.78;40.81;101638.19;128509;1083;63964;-86
2021/08/14 01:01:01;;;;;;;4.60;3.53;;;;;;;29.78;40.34;101638.19;128445;1084;64272;-86
2021/08/14 01:03:28;;;;;;;5.27;3.40;;;;;;;29.78;40.85;101638.19;128463;1084;64242;-85
2021/08/14 01:05:54;;;;;;;5.10;3.43;;;;;;;29.78;40.65;101632.75;128508;1084;64142;-85
2021/08/14 01:08:22;;;;;;;4.80;2.93;;;;;;;29.77;40.57;101636.47;128479;1084;64122;-85
2021/08/14 01:10:48;;;;;;;5.17;3.40;;;;;;;29.76;40.42;101632.91;128466;1084;64130;-85
2021/08/14 01:13:17;;;;;;;5.23;3.37;;;;;;;29.77;40.80;101631.02;128894;1084;64096;-85
2021/08/14 01:15:50;;;;;;;5.70;3.10;;;;;;;29.77;40.81;101631.02;128924;1084;64163;-86
2021/08/14 01:18:20;;;;;;;5.20;3.43;;;;;;;29.78;40.81;101627.30;128883;1084;64213;-86
2021/08/14 01:20:47;;;;;;;6.10;3.40;;;;;;;29.78;40.76;101624.58;128482;1084;64139;-86
2021/08/14 01:23:15;;;;;;;5.13;3.30;;;;;;;29.77;40.72;101628.30;128538;1084;64093;-85
2021/08/14 01:25:43;;;;;;;5.90;3.20;;;;;;;29.76;40.84;101619.30;128531;1084;64170;-86
2021/08/14 01:28:09;;;;;;;5.80;3.50;;;;;;;29.76;40.79;101618.41;128520;1082;63900;-87
2021/08/14 01:30:38;;;;;;;4.87;3.20;;;;;;;29.76;40.76;101611.13;128492;1084;64146;-86
2021/08/14 01:33:04;;;;;;;5.40;3.35;;;;;;;29.76;40.70;101622.02;128478;1084;64204;-86
2021/08/14 01:35:30;;;;;;;5.13;3.30;;;;;;;29.76;40.66;101622.02;128937;1084;64180;-86
2021/08/14 01:37:57;;;;;;;5.57;3.47;;;;;;;29.76;40.96;101610.25;128537;1084;62920;-86
2021/08/14 01:40:23;;;;;;;4.17;2.97;;;;;;;29.76;40.80;101618.41;128526;1084;64298;-86
2021/08/14 01:42:50;;;;;;;4.97;3.23;;;;;;;29.77;40.64;101620.14;128576;1084;62954;-86
2021/08/14 01:45:16;;;;;;;4.80;3.50;;;;;;;29.78;40.58;101626.42;128645;1083;64125;-85
2021/08/14 01:47:43;;;;;;;6.03;3.53;;;;;;;29.78;40.78;101630.03;128713;1084;64226;-86
2021/08/14 01:50:12;;;;;;;4.07;3.00;;;;;;;29.78;40.78;101616.42;128514;1083;64209;-86
2021/08/14 01:52:39;;;;;;;5.93;3.60;;;;;;;29.78;40.91;101621.86;128475;1084;64243;-86
2021/08/14 01:55:10;;;;;;;4.87;3.50;;;;;;;29.77;40.70;101609.25;128529;1083;64125;-86
2021/08/14 01:57:36;;;;;;;4.30;3.27;;;;;;;29.78;40.89;101613.70;128454;1084;64281;-86
2021/08/14 02:00:03;;;;;;;4.77;3.33;;;;;;;29.79;40.79;101617.27;128442;1084;64150;-85
2021/08/14 02:02:30;;;;;;;5.17;3.03;;;;;;;29.78;40.42;101615.54;128506;1084;64147;-86
2021/08/14 02:04:56;;;;;;;5.57;3.40;;;;;;;29.78;40.94;101616.42;128470;1084;64442;-85
2021/08/14 02:07:23;;;;;;;4.07;3.00;;;;;;;29.76;40.86;101619.30;128479;1084;64283;-85
2021/08/14 02:09:50;;;;;;;5.70;3.53;;;;;;;29.77;40.47;101620.14;128509;1084;64385;-85
2021/08/14 02:12:17;;;;;;;4.93;3.30;;;;;;;29.77;40.66;101622.86;128477;1084;64585;-86
2021/08/14 02:14:43;;;;;;;4.47;3.30;;;;;;;29.76;40.77;101622.02;128505;1083;64227;-86
2021/08/14 02:17:10;;;;;;;4.30;3.30;;;;;;;29.76;40.41;101622.02;128500;1083;64227;-86
2021/08/14 02:19:45;;;;;;;5.13;3.47;;;;;;;29.75;40.92;101620.29;128485;1084;64215;-85
2021/08/14 02:22:11;;;;;;;5.70;3.47;;;;;;;29.74;40.91;101613.13;128475;1083;64124;-86
2021/08/14 02:24:37;;;;;;;5.10;3.13;;;;;;;29.75;40.85;101617.57;128487;1084;64346;-85
2021/08/14 02:27:04;;;;;;;5.87;3.20;;;;;;;29.75;40.85;101622.14;128487;1084;64169;-85
2021/08/14 02:29:33;;;;;;;5.00;3.20;;;;;;;29.75;40.99;101624.86;128488;1083;64132;-86
2021/08/14 02:32:02;;;;;;;6.00;3.57;;;;;;;29.74;41.05;101615.84;128495;1084;64134;-86
2021/08/14 02:34:29;;;;;;;4.57;3.33;;;;;;;29.75;40.55;101627.58;128483;1084;64118;-86
2021/08/14 02:36:56;;;;;;;4.77;3.40;;;;;;;29.74;40.66;101617.72;128482;1084;64125;-86
2021/08/14 02:39:22;;;;;;;6.53;3.40;;;;;;;29.74;40.77;101629.45;128461;1084;64757;-86
2021/08/14 02:41:52;;;;;;;5.57;3.40;;;;;;;29.73;40.71;101622.28;128497;1083;64181;-87
2021/08/14 02:44:18;;;;;;;5.27;3.37;;;;;;;29.74;40.68;101623.16;128479;1082;64093;-86
2021/08/14 02:46:44;;;;;;;4.63;3.27;;;;;;;29.74;40.37;101631.33;128920;1082;64153;-86
2021/08/14 02:49:11;;;;;;;5.37;3.50;;;;;;;29.73;40.96;101625.01;128473;1084;64262;-86
2021/08/14 02:51:37;;;;;;;5.27;3.63;;;;;;;29.73;41.08;101621.44;128472;1084;64262;-87
2021/08/14 02:54:04;;;;;;;4.73;3.00;;;;;;;29.73;40.82;101616.84;128515;1083;64208;-86
2021/08/14 02:56:30;;;;;;;4.57;3.13;;;;;;;29.73;41.17;101613.28;128465;1084;64204;-86
2021/08/14 02:58:56;;;;;;;5.00;3.30;;;;;;;29.73;41.02;101613.28;128493;1084;64129;-86
2021/08/14 03:01:22;;;;;;;5.47;3.40;;;;;;;29.73;40.88;101621.44;128521;1084;64135;-86
2021/08/14 03:03:49;;;;;;;5.00;3.23;;;;;;;29.72;40.90;101617.84;128530;1084;64202;-87
2021/08/14 03:06:33;;;;;;;4.77;3.30;;;;;;;29.73;41.19;101622.28;128513;1084;63946;-85
2021/08/14 03:08:59;;;;;;;6.50;3.80;;;;;;;29.72;41.30;101625.16;128486;1084;64137;-86
2021/08/14 03:11:28;;;;;;;5.63;3.40;;;;;;;29.72;41.08;101622.44;128496;1084;64090;-86
2021/08/14 03:13:55;;;;;;;4.63;3.27;;;;;;;29.72;40.73;101619.72;128490;1084;64105;-86
2021/08/14 03:16:21;;;;;;;5.60;3.63;;;;;;;29.72;41.28;101620.56;128499;1082;64125;-85
2021/08/14 03:18:48;;;;;;;5.95;3.60;;;;;;;29.72;41.17;101619.72;128458;1084;64120;-87
2021/08/14 03:21:14;;;;;;;4.97;3.30;;;;;;;29.72;41.27;101620.56;128489;1083;64125;-85
2021/08/14 03:23:40;;;;;;;4.80;3.00;;;;;;;29.71;41.30;101621.59;128477;1084;64211;-85
2021/08/14 03:26:07;;;;;;;5.40;3.40;;;;;;;29.71;41.27;101618.00;128488;1084;64147;-85
2021/08/14 03:28:42;;;;;;;5.63;3.40;;;;;;;29.71;41.04;101627.03;128549;1084;64092;-85
2021/08/14 03:31:21;;;;;;;4.90;3.20;;;;;;;29.71;41.47;101629.76;128523;1082;64098;-87
2021/08/14 03:33:48;;;;;;;4.77;3.20;;;;;;;29.71;41.35;101629.76;128505;1082;64227;-86
2021/08/14 03:36:14;;;;;;;5.83;3.43;;;;;;;29.71;41.37;101635.20;128485;1084;64236;-85
2021/08/14 03:38:40;;;;;;;4.20;3.05;;;;;;;29.71;41.57;101631.60;128494;1082;64161;-86
2021/08/14 03:41:08;;;;;;;4.93;3.03;;;;;;;29.71;41.50;101629.76;128487;1084;64096;-87
2021/08/14 03:43:36;;;;;;;5.10;3.13;;;;;;;29.71;41.51;101632.48;128520;1084;64178;-85
2021/08/14 03:46:03;;;;;;;4.90;3.43;;;;;;;29.71;41.33;101634.32;128497;1084;64090;-86
2021/08/14 03:48:29;;;;;;;5.07;3.43;;;;;;;29.71;41.55;101631.60;128498;1084;64115;-88
2021/08/14 03:50:56;;;;;;;5.03;3.53;;;;;;;29.72;41.74;101636.05;128482;1084;64095;-85
2021/08/14 03:53:23;;;;;;;5.30;3.67;;;;;;;29.71;41.52;101643.36;128501;1084;64609;-86
2021/08/14 03:55:49;;;;;;;5.40;3.33;;;;;;;29.71;41.62;101632.48;128449;1084;64134;-87
2021/08/14 03:58:15;;;;;;;5.93;3.33;;;;;;;29.70;41.25;101638.92;128518;1083;64485;-86
2021/08/14 04:00:42;;;;;;;4.63;3.30;;;;;;;29.71;41.60;101640.64;128477;1083;64173;-86
2021/08/14 04:03:10;;;;;;;5.07;3.47;;;;;;;29.71;41.88;101637.92;128522;1083;64201;-86
2021/08/14 04:05:39;;;;;;;5.87;3.77;;;;;;;29.72;41.80;101634.17;128476;1084;64202;-86
2021/08/14 04:08:05;;;;;;;6.07;3.80;;;;;;;29.71;41.83;101635.20;128476;1084;64124;-86
2021/08/14 04:10:31;;;;;;;5.47;3.37;;;;;;;29.72;41.56;101636.05;128454;1084;64204;-86
2021/08/14 04:12:57;;;;;;;4.60;3.40;;;;;;;29.71;41.77;101632.48;128531;1083;64092;-87
2021/08/14 04:15:24;;;;;;;4.67;3.20;;;;;;;29.71;41.96;101637.92;128904;1084;64134;-86
2021/08/14 04:17:50;;;;;;;4.97;3.33;;;;;;;29.71;41.41;101632.48;128499;1084;64238;-87
2021/08/14 04:20:17;;;;;;;5.23;3.40;;;;;;;29.72;41.76;101645.05;128501;1083;64617;-86
2021/08/14 04:22:43;;;;;;;4.67;3.50;;;;;;;29.71;41.90;101635.20;128511;1084;64122;-86
2021/08/14 04:25:09;;;;;;;4.70;3.37;;;;;;;29.71;41.51;101631.60;128508;1082;64170;-85
2021/08/14 04:27:35;;;;;;;4.83;3.30;;;;;;;29.70;41.60;101638.92;128476;1084;64205;-86
2021/08/14 04:30:04;;;;;;;4.55;3.45;;;;;;;29.71;41.81;101640.64;128475;1084;64179;-85
2021/08/14 04:32:35;;;;;;;;;;;;;;;29.70;41.39;101643.52;128953;1084;64093;-86
2021/08/14 04:35:03;;;;;;;5.50;3.20;;;;;;;29.69;41.81;101645.36;128498;1084;64121;-86
2021/08/14 04:37:29;;;;;;;;;;;;;;;29.68;41.66;101645.52;128945;1083;64269;-85
2021/08/14 04:39:56;;;;;;;4.80;3.10;;;;;;;29.67;41.78;101644.66;128902;1084;64067;-86
2021/08/14 04:42:23;;;;;;;5.20;3.30;;;;;;;29.68;41.58;101645.52;128491;1084;64099;-85
2021/08/14 04:44:49;;;;;;;4.60;3.30;;;;;;;29.69;41.78;101644.52;128507;1084;64103;-86
2021/08/14 04:47:24;;;;;;;4.53;3.43;;;;;;;29.69;41.51;101648.08;128476;1083;64169;-86
2021/08/14 04:49:50;;;;;;;4.30;3.20;;;;;;;29.69;41.83;101642.64;128505;1084;64297;-86
2021/08/14 04:52:17;;;;;;;4.50;3.20;;;;;;;29.70;41.47;101644.36;128519;1082;64125;-86
2021/08/14 04:54:52;;;;;;;4.60;3.30;;;;;;;29.71;41.81;101645.20;128513;1084;64090;-86
2021/08/14 04:57:18;;;;;;;5.30;3.30;;;;;;;29.70;41.62;101644.36;128463;1084;64272;-86
2021/08/14 04:59:47;;;;;;;4.90;3.30;;;;;;;29.70;41.63;101643.52;128903;1084;64134;-86
2021/08/14 05:02:13;;;;;;;5.10;3.50;;;;;;;29.72;41.77;101646.93;128534;1084;64147;-86
2021/08/14 05:04:42;;;;;;;5.30;3.37;;;;;;;29.72;41.51;101649.66;128496;1084;64287;-86
2021/08/14 05:07:08;;;;;;;4.85;3.40;;;;;;;29.72;41.96;101652.38;128463;1084;64102;-86
2021/08/14 05:09:38;;;;;;;5.17;3.50;;;;;;;29.72;41.52;101650.50;128495;1082;64296;-86
2021/08/14 05:12:04;;;;;;;4.77;3.30;;;;;;;29.72;41.81;101647.77;128525;1084;64115;-86
2021/08/14 05:14:31;;;;;;;5.87;3.50;;;;;;;29.74;41.85;101650.38;128494;1084;64137;-86
2021/08/14 05:16:57;;;;;;;6.03;3.30;;;;;;;29.73;42.08;101649.50;128495;1084;64099;-86
2021/08/14 05:19:23;;;;;;;4.40;3.20;;;;;;;29.74;42.09;101653.95;128529;1084;64150;-86
2021/08/14 05:21:49;;;;;;;5.43;3.20;;;;;;;29.75;42.23;101652.95;128487;1084;64118;-86
2021/08/14 05:24:16;;;;;;;5.60;3.20;;;;;;;29.76;42.24;101653.80;128460;1084;64304;-85
2021/08/14 05:26:44;;;;;;;4.93;3.20;;;;;;;29.77;42.25;101658.23;128491;1084;62951;-86
2021/08/14 05:29:11;;;;;;;5.60;3.13;;;;;;;29.77;42.60;101652.80;128496;1083;64172;-87
2021/08/14 05:31:40;;;;;;;5.87;3.00;;;;;;;29.80;42.11;101667.97;128512;1084;64234;-85
2021/08/14 05:34:07;;;;;;;5.23;3.10;;;;;;;29.80;42.41;101660.66;128513;1083;64163;-85
2021/08/14 05:36:33;;;;;;;4.60;3.17;;;;;;;29.80;42.44;101660.66;128474;1084;64286;-85
2021/08/14 05:38:59;;;;;;;4.43;3.20;;;;;;;29.82;42.78;101660.50;128554;1082;64231;-85
2021/08/14 05:41:25;;;;;;;4.13;2.90;;;;;;;29.83;42.85;101654.94;128555;1084;64179;-84
2021/08/14 05:43:51;;;;;;;5.87;3.43;;;;;;;29.84;42.72;101656.63;128584;1082;64122;-84
2021/08/14 05:46:18;;;;;;;5.57;3.70;;;;;;;29.85;42.61;101649.34;128581;1084;63249;-84
2021/08/14 05:48:44;;;;;;;4.93;3.10;;;;;;;29.86;42.69;101651.94;128633;1084;64301;-84
2021/08/14 05:51:11;;;;;;;4.60;3.10;;;;;;;29.87;42.68;101652.79;128714;1084;64295;-86
2021/08/14 05:53:37;;;;;;;5.10;3.37;;;;;;;29.87;42.75;101642.78;128505;1084;64158;-85
2021/08/14 05:56:05;;;;;;;4.27;3.00;;;;;;;29.90;42.62;101647.92;128509;1083;64124;-85
2021/08/14 05:58:34;;;;;;;;;;;;;;;29.89;42.79;101640.75;128550;1083;64279;-86
2021/08/14 06:01:01;;;;;;;4.75;3.18;;;;;;;29.89;42.45;101634.46;128938;1084;64128;-86
2021/08/14 06:03:35;;;;;;;5.60;3.40;;;;;;;29.90;42.80;101650.64;128517;1084;64134;-86
2021/08/14 06:06:02;;;;;;;5.35;3.45;;;;;;;29.92;42.68;101645.05;128912;1084;64188;-86
2021/08/14 06:08:30;;;;;;;5.00;3.13;;;;;;;29.92;42.32;101642.32;128516;1084;64648;-86
2021/08/14 06:10:58;;;;;;;5.93;3.23;;;;;;;29.92;42.91;101640.45;128521;1082;64128;-86
2021/08/14 06:13:25;;;;;;;4.38;3.00;;;;;;;29.92;42.63;101640.45;128491;1084;64156;-85
2021/08/14 06:15:58;;;;;;;5.70;3.40;;;;;;;29.92;42.97;101637.72;128464;1082;64127;-85
2021/08/14 06:18:34;;;;;;;4.70;3.23;;;;;;;29.93;42.87;101642.16;128502;1084;64145;-86
2021/08/14 06:21:10;;;;;;;4.13;3.00;;;;;;;29.95;42.62;101638.45;128513;1084;64211;-86
2021/08/14 06:23:39;;;;;;;6.07;3.07;;;;;;;29.96;42.68;101629.28;128927;1084;64182;-86
2021/08/14 06:26:07;;;;;;;4.60;3.10;;;;;;;29.95;42.83;101633.00;128503;1084;65337;-86
2021/08/14 06:28:33;;;;;;;5.10;3.27;;;;;;;29.97;42.50;101633.73;128468;1082;65293;-86
2021/08/14 06:30:59;;;;;;;4.83;3.27;;;;;;;29.97;42.53;101636.45;128531;1084;64121;-85
2021/08/14 06:33:27;;;;;;;4.80;3.33;;;;;;;29.98;43.04;101635.42;128449;1084;64099;-86
2021/08/14 06:35:56;;;;;;;4.50;3.13;;;;;;;29.97;42.86;101629.13;128457;1084;64096;-85
2021/08/14 06:38:22;;;;;;;5.33;3.30;;;;;;;29.97;43.05;101629.13;128899;1084;64218;-86
2021/08/14 06:40:51;;;;;;;4.73;3.40;;;;;;;29.99;42.69;101629.81;128944;1084;64291;-86
2021/08/14 06:43:18;;;;;;;5.07;3.20;;;;;;;30.00;43.18;101627.97;128895;1084;64120;-85
2021/08/14 06:45:44;;;;;;;4.90;3.37;;;;;;;30.00;43.08;101625.25;128502;1084;64201;-84
2021/08/14 06:48:10;;;;;;;4.63;3.30;;;;;;;30.00;42.93;101630.70;128490;1084;64139;-85
2021/08/14 06:50:36;;;;;;;4.90;3.30;;;;;;;30.01;43.17;101626.97;128508;1083;64277;-85
2021/08/14 06:53:03;;;;;;;4.60;3.17;;;;;;;30.01;42.75;101629.70;128520;1083;64134;-85
2021/08/14 06:55:29;;;;;;;5.33;3.30;;;;;;;30.01;43.24;101630.55;128457;1083;64190;-85
2021/08/14 06:58:05;;;;;;;4.83;3.20;;;;;;;30.01;42.74;101627.81;128451;1084;64211;-86
2021/08/14 07:00:33;;;;;;;4.30;3.20;;;;;;;30.02;42.89;101629.55;128917;1084;64097;-85
2021/08/14 07:03:01;;;;;;;4.70;3.13;;;;;;;30.02;42.84;101634.98;128492;1084;64025;-86
2021/08/14 07:05:27;;;;;;;4.87;3.47;;;;;;;30.03;43.19;101630.39;128537;1084;64127;-84
2021/08/14 07:07:53;;;;;;;4.67;3.27;;;;;;;30.03;43.11;101633.98;128479;1082;64218;-85
2021/08/14 07:10:22;;;;;;;5.67;3.57;;;;;;;30.04;43.16;101637.55;128523;1084;64329;-85
2021/08/14 07:12:49;;;;;;;4.40;3.17;;;;;;;30.03;43.26;101636.71;128486;1084;64866;-86
2021/08/14 07:15:15;;;;;;;4.40;3.00;;;;;;;30.04;43.39;101638.40;128504;1084;64145;-85
2021/08/14 07:17:42;;;;;;;4.83;3.17;;;;;;;30.05;43.01;101642.00;128511;1084;64295;-86
2021/08/14 07:20:11;;;;;;;4.30;3.43;;;;;;;30.05;43.04;101634.68;128535;1083;64137;-86
2021/08/14 07:22:46;;;;;;;5.00;3.43;;;;;;;30.05;43.24;101633.83;128914;1084;64207;-87
2021/08/14 07:25:12;;;;;;;4.23;3.10;;;;;;;30.05;43.06;101628.39;128872;1084;64117;-85
2021/08/14 07:27:42;;;;;;;4.63;3.30;;;;;;;30.05;43.38;101642.00;128482;1084;64680;-86
2021/08/14 07:30:09;;;;;;;5.60;3.20;;;;;;;30.06;43.45;101638.25;128946;1084;64139;-85
2021/08/14 07:32:36;;;;;;;4.20;3.10;;;;;;;30.05;43.31;101626.52;128453;1084;64136;-86
2021/08/14 07:35:03;;;;;;;4.87;3.00;;;;;;;30.06;43.48;101640.97;128499;1084;64201;-86
2021/08/14 07:37:30;;;;;;;4.67;3.23;;;;;;;30.06;43.43;101640.97;128456;1082;64098;-86
2021/08/14 07:40:05;;;;;;;4.07;3.17;;;;;;;30.06;43.00;101635.52;128536;1084;64020;-86
2021/08/14 07:42:40;;;;;;;5.50;3.27;;;;;;;30.07;43.07;101631.80;128487;1084;64090;-86
2021/08/14 07:45:08;;;;;;;4.50;3.30;;;;;;;30.07;43.52;101634.52;128531;1084;64278;-86
2021/08/14 07:47:35;;;;;;;4.30;3.03;;;;;;;30.07;43.55;101626.35;128538;1084;64208;-85
2021/08/14 07:50:01;;;;;;;4.65;3.25;;;;;;;30.07;43.50;101623.63;128526;1084;64176;-86
2021/08/14 07:52:27;;;;;;;4.87;3.20;;;;;;;30.07;43.05;101631.80;128506;1084;64100;-86
2021/08/14 07:54:56;;;;;;;4.30;3.27;;;;;;;30.07;43.36;101623.63;128436;1084;64141;-85
2021/08/14 07:57:46;;;;;;;4.83;3.07;;;;;;;30.07;43.15;101624.52;128412;1083;64316;-84
2021/08/14 08:00:16;;;;;;;4.60;3.40;;;;;;;30.07;43.56;101629.95;128167;1087;64281;-84
2021/08/14 08:02:43;;;;;;;5.50;3.20;;;;;;;30.07;43.22;101629.08;128213;1085;64154;-84
2021/08/14 08:05:10;;;;;;;4.00;2.90;;;;;;;30.08;43.60;101612.59;127862;1087;64122;-84
2021/08/14 08:07:40;;;;;;;4.20;3.03;;;;;;;30.08;43.60;101623.48;127861;1085;64156;-83
2021/08/14 08:10:12;;;;;;;4.73;3.23;;;;;;;30.09;43.59;101618.91;127966;1087;64105;-85
2021/08/14 08:12:38;;;;;;;4.67;3.03;;;;;;;30.08;43.22;101612.59;128313;1087;64281;-86
2021/08/14 08:15:11;;;;;;;5.00;3.17;;;;;;;30.09;43.59;101617.03;128403;1087;64249;-86
2021/08/14 08:17:37;;;;;;;4.43;3.20;;;;;;;30.11;43.20;101624.20;128027;1087;64358;-86
2021/08/14 08:20:05;;;;;;;4.70;2.93;;;;;;;30.10;43.42;101617.91;128056;1085;64206;-86
2021/08/14 08:22:31;;;;;;;4.10;3.00;;;;;;;30.09;43.47;101617.03;128368;1087;64134;-85
2021/08/14 08:24:57;;;;;;;3.97;2.73;;;;;;;30.09;43.09;101614.31;128345;1086;64139;-86
2021/08/14 08:27:27;;;;;;;4.80;3.20;;;;;;;30.09;43.16;101611.59;128052;1085;64308;-86
2021/08/14 08:29:53;;;;;;;;;;;;;;;30.09;43.57;101608.02;128397;1087;64597;-86
2021/08/14 08:32:19;;;;;;;4.50;3.15;;;;;;;30.07;43.60;101605.45;128171;1087;64176;-87
2021/08/14 08:34:46;;;;;;;4.70;3.20;;;;;;;30.08;43.08;101603.58;128000;1087;64136;-85
2021/08/14 08:37:15;;;;;;;5.30;3.20;;;;;;;30.08;43.74;101600.85;128449;1084;64105;-86
2021/08/14 08:39:42;;;;;;;4.60;3.03;;;;;;;30.07;43.75;101601.86;128909;1083;64092;-86
2021/08/14 08:42:11;;;;;;;4.63;3.17;;;;;;;30.08;43.26;101598.13;128471;1084;64102;-87
2021/08/14 08:44:38;;;;;;;4.43;3.17;;;;;;;30.07;43.72;101593.69;128433;1084;64339;-86
2021/08/14 08:47:08;;;;;;;4.53;2.80;;;;;;;30.08;43.85;101596.25;128496;1082;64124;-85
2021/08/14 08:49:35;;;;;;;5.17;3.37;;;;;;;30.08;43.33;101587.23;128481;1084;64173;-87
2021/08/14 08:52:05;;;;;;;4.35;3.10;;;;;;;30.08;43.74;101589.96;128509;1083;64131;-86
2021/08/14 08:54:32;;;;;;;5.00;3.07;;;;;;;30.09;43.46;101594.41;128534;1082;64184;-86
2021/08/14 08:56:58;;;;;;;4.87;3.03;;;;;;;30.09;43.47;101588.96;128502;1083;64744;-85
2021/08/14 08:59:24;;;;;;;5.07;3.13;;;;;;;30.08;43.34;101585.36;128531;1084;65288;-86
2021/08/14 09:01:50;;;;;;;4.57;3.03;;;;;;;30.09;43.72;101583.52;128494;1084;64170;-86
2021/08/14 09:04:27;;;;;;;4.30;3.00;;;;;;;30.09;43.84;101586.23;128499;1084;64316;-86
2021/08/14 09:06:54;;;;;;;4.30;3.10;;;;;;;30.09;43.89;101583.52;128491;1082;64223;-86
2021/08/14 09:09:25;;;;;;;4.20;2.80;;;;;;;30.08;43.52;101574.47;128514;1083;64134;-87
2021/08/14 09:11:55;;;;;;;4.60;3.03;;;;;;;30.09;43.44;101580.80;128544;1084;64137;-86
2021/08/14 09:14:21;;;;;;;4.70;3.00;;;;;;;30.09;43.68;101581.64;128501;1084;64134;-87
2021/08/14 09:17:06;;;;;;;4.70;3.00;;;;;;;30.08;43.32;101582.64;128470;1084;64696;-86
2021/08/14 09:19:32;;;;;;;3.80;2.87;;;;;;;30.08;43.16;101571.75;128562;1082;64169;-85
2021/08/14 09:22:12;;;;;;;4.97;3.10;;;;;;;30.09;43.59;101575.34;128511;1082;64128;-86
2021/08/14 09:24:39;;;;;;;4.20;3.00;;;;;;;30.08;43.67;101569.03;128533;1084;64250;-87
2021/08/14 09:27:07;;;;;;;4.87;2.90;;;;;;;30.08;43.62;101555.41;128879;1084;64298;-86
2021/08/14 09:29:38;;;;;;;4.27;2.90;;;;;;;30.08;43.24;101560.86;128529;1084;63944;-86
2021/08/14 09:32:09;;;;;;;4.00;2.90;;;;;;;30.08;43.61;101555.41;128900;1084;64156;-86
2021/08/14 09:34:41;;;;;;;4.57;2.97;;;;;;;30.09;43.06;101559.02;128492;1083;64176;-86
2021/08/14 09:37:10;;;;;;;3.97;2.70;;;;;;;30.08;43.65;101555.41;128462;1084;64307;-86
2021/08/14 09:40:02;;;;;;;3.93;2.80;;;;;;;30.08;43.60;101560.02;128540;1082;64288;-86
2021/08/14 09:42:28;;;;;;;4.30;3.17;;;;;;;30.08;43.20;101560.86;128505;1084;64123;-86
2021/08/14 09:45:16;;;;;;;3.83;2.57;;;;;;;30.08;43.51;101562.73;128557;1083;63666;-85
2021/08/14 09:47:43;;;;;;;4.47;3.20;;;;;;;30.09;43.57;101559.02;128520;1084;64369;-86
2021/08/14 09:50:09;;;;;;;4.43;3.00;;;;;;;30.08;43.45;101554.57;128932;1084;62267;-84
2021/08/14 09:52:36;;;;;;;4.13;2.97;;;;;;;30.09;43.68;101543.52;128949;1084;62445;-83
2021/08/14 09:55:02;;;;;;;4.90;3.00;;;;;;;30.11;43.31;101542.52;129035;1084;64169;-84
2021/08/14 09:57:28;;;;;;;4.60;3.10;;;;;;;30.11;43.85;101537.08;128514;1084;64304;-84
2021/08/14 09:59:54;;;;;;;4.70;2.97;;;;;;;30.11;43.74;101535.20;128884;1084;64211;-85
2021/08/14 10:02:25;;;;;;;4.47;2.90;;;;;;;30.11;43.60;101539.80;128509;1084;64195;-85
2021/08/14 10:04:53;;;;;;;4.40;2.97;;;;;;;30.12;43.85;101536.08;128494;1084;64128;-85
2021/08/14 10:07:21;;;;;;;4.70;3.20;;;;;;;30.11;43.88;101531.63;128526;1084;63073;-86
2021/08/14 10:09:48;;;;;;;;;;;;;;;30.09;43.88;101537.23;128505;1084;64130;-86
2021/08/14 10:12:18;;;;;;;4.43;2.93;;;;;;;30.08;43.85;101533.63;128912;1084;64090;-85
2021/08/14 10:14:47;;;;;;;4.73;3.17;;;;;;;30.07;43.92;101529.22;128835;1082;64638;-87
2021/08/14 10:17:13;;;;;;;;;;;;;;;30.07;43.45;101522.91;128425;1083;64124;-85
2021/08/14 10:19:39;;;;;;;4.40;2.90;;;;;;;30.06;43.80;101521.18;128924;1084;64362;-87
2021/08/14 10:22:07;;;;;;;4.45;3.00;;;;;;;30.05;43.56;101514.05;128514;1084;64134;-85
2021/08/14 10:24:36;;;;;;;4.60;2.80;;;;;;;30.04;43.77;101518.62;128496;1083;64012;-85
2021/08/14 10:27:07;;;;;;;;;;;;;;;30.04;43.41;101515.89;128932;1084;64163;-86
2021/08/14 10:29:58;;;;;;;4.20;2.90;;;;;;;30.03;43.64;101513.33;128940;1083;64636;-85
2021/08/14 10:32:37;;;;;;;4.13;2.80;;;;;;;30.03;43.74;101506.04;128842;1084;64226;-84
2021/08/14 10:35:21;;;;;;;4.40;2.80;;;;;;;30.03;43.48;101505.16;128929;1082;63410;-84
2021/08/14 10:37:48;;;;;;;4.57;2.87;;;;;;;30.03;43.54;101510.61;128893;1082;64231;-86
2021/08/14 10:40:15;;;;;;;4.00;2.97;;;;;;;30.02;43.18;101507.04;128515;1082;64208;-86
2021/08/14 10:42:52;;;;;;;4.63;3.30;;;;;;;30.03;43.42;101499.72;128918;1084;64137;-86
2021/08/14 10:45:35;;;;;;;4.23;2.73;;;;;;;30.03;43.53;101497.88;128866;1084;64138;-86
2021/08/14 10:48:05;;;;;;;4.77;2.90;;;;;;;30.03;43.19;101495.15;128503;1084;64157;-86
2021/08/14 10:50:52;;;;;;;4.07;2.60;;;;;;;30.03;43.28;101495.15;128508;1083;64174;-85
2021/08/14 10:53:22;;;;;;;4.95;2.90;;;;;;;30.02;43.32;101496.16;128001;1085;64263;-85
2021/08/14 10:55:52;;;;;;;4.30;2.97;;;;;;;30.03;42.90;101488.83;128007;1085;64874;-86
2021/08/14 10:58:32;;;;;;;4.20;2.70;;;;;;;30.03;43.31;101492.42;128021;1087;64346;-86
2021/08/14 11:01:07;;;;;;;4.33;2.77;;;;;;;30.03;43.07;101481.54;128044;1087;64157;-85
2021/08/14 11:03:59;;;;;;;4.00;2.67;;;;;;;30.03;42.65;101484.26;128360;1087;64212;-85
2021/08/14 11:06:28;;;;;;;3.87;2.80;;;;;;;30.03;42.70;101484.26;127882;1089;64144;-85
2021/08/14 11:09:39;;;;;;;4.35;2.80;;;;;;;30.03;42.88;101480.66;127897;1090;64102;-87
2021/08/14 11:12:06;;;;;;;3.80;2.60;;;;;;;30.02;42.84;101474.38;127723;1093;64136;-85
2021/08/14 11:14:51;;;;;;;3.73;2.80;;;;;;;30.01;42.83;101474.53;127729;1093;63958;-85
2021/08/14 11:17:17;;;;;;;4.37;2.67;;;;;;;30.02;43.07;101466.20;127654;1093;64288;-86
2021/08/14 11:19:46;;;;;;;4.53;2.90;;;;;;;30.02;42.61;101465.33;127683;1093;64143;-86
2021/08/14 11:22:41;;;;;;;5.40;3.27;;;;;;;30.02;42.61;101465.33;127717;1092;63958;-85
2021/08/14 11:25:23;;;;;;;4.30;3.00;;;;;;;30.02;42.61;101476.22;127705;1093;64112;-86
2021/08/14 11:28:11;;;;;;;4.30;3.10;;;;;;;30.01;42.66;101471.81;127686;1093;64253;-86